Time;durP1;ratioP1;P1;durP2;ratioP2;P2;SDS_P1;SDS_P2;PMS_P1;PMS_P2;Temp;Humidity;BMP_temperature;BMP_pressure;BME280_temperature;BME280_humidity;BME280_pressure;Samples;Min_cycle;Max_cycle;Signal;HPM_P1;HPM_P2
2021/07/08 00:01:22;;;;;;;2.03;1.70;;;;;21.60;101741.00;;;;5078489;28;20195;-80
2021/07/08 00:03:49;;;;;;;2.53;1.80;;;;;21.60;101752.00;;;;5068558;28;20199;-79
2021/07/08 00:06:16;;;;;;;2.15;1.85;;;;;21.60;101743.00;;;;5075620;28;20219;-79
2021/07/08 00:08:43;;;;;;;2.03;1.83;;;;;21.60;101753.00;;;;5075576;28;20202;-79
2021/07/08 00:11:12;;;;;;;3.50;1.88;;;;;21.50;101746.00;;;;5076080;28;20194;-80
2021/07/08 00:13:39;;;;;;;3.80;2.20;;;;;21.50;101746.00;;;;5086119;28;20221;-79
2021/07/08 00:16:06;;;;;;;3.22;2.05;;;;;21.50;101743.00;;;;5068990;28;20191;-79
2021/07/08 00:18:34;;;;;;;4.30;2.03;;;;;21.50;101750.00;;;;5076629;28;20695;-80
2021/07/08 00:21:01;;;;;;;3.78;2.17;;;;;21.50;101749.00;;;;5068333;28;20211;-80
2021/07/08 00:23:28;;;;;;;4.35;2.10;;;;;21.50;101749.00;;;;5068538;28;20211;-79
2021/07/08 00:25:56;;;;;;;3.95;2.10;;;;;21.40;101751.00;;;;5073639;28;20195;-80
2021/07/08 00:28:25;;;;;;;3.05;1.88;;;;;21.40;101752.00;;;;5074018;28;20212;-80
2021/07/08 00:30:53;;;;;;;1.90;1.63;;;;;21.40;101744.00;;;;5068792;28;20204;-79
2021/07/08 00:33:21;;;;;;;4.00;1.90;;;;;21.40;101756.00;;;;5068380;28;20234;-79
2021/07/08 00:35:49;;;;;;;2.42;2.22;;;;;21.30;101757.00;;;;5082429;28;20577;-79
2021/07/08 00:38:17;;;;;;;3.38;2.15;;;;;21.30;101757.00;;;;5076578;28;20202;-79
2021/07/08 00:40:44;;;;;;;1.92;1.73;;;;;21.30;101763.00;;;;5080766;28;20199;-79
2021/07/08 00:43:11;;;;;;;3.65;2.22;;;;;21.30;101759.00;;;;5067639;28;20218;-79
2021/07/08 00:45:40;;;;;;;1.77;1.42;;;;;21.30;101754.00;;;;5074910;28;20186;-79
2021/07/08 00:48:09;;;;;;;2.30;2.10;;;;;21.30;101761.00;;;;5074703;28;20225;-79
2021/07/08 00:50:42;;;;;;;2.90;2.05;;;;;21.30;101761.00;;;;5080843;28;20186;-79
2021/07/08 00:53:10;;;;;;;2.22;1.90;;;;;21.30;101758.00;;;;5076297;28;20199;-79
2021/07/08 00:55:37;;;;;;;4.22;2.10;;;;;21.20;101755.00;;;;5070877;28;20201;-80
2021/07/08 00:58:07;;;;;;;2.40;1.98;;;;;21.20;101766.00;;;;5088234;28;20190;-80
2021/07/08 01:00:36;;;;;;;4.10;2.08;;;;;21.20;101762.00;;;;5068910;28;20191;-79
2021/07/08 01:03:08;;;;;;;2.83;2.00;;;;;21.20;101760.00;;;;5072163;28;20264;-79
2021/07/08 01:05:38;;;;;;;2.60;2.03;;;;;21.20;101765.00;;;;5076352;28;20215;-79
2021/07/08 01:08:06;;;;;;;2.78;2.13;;;;;21.20;101755.00;;;;5071658;28;20690;-79
2021/07/08 01:10:33;;;;;;;3.22;2.05;;;;;21.20;101751.00;;;;5071958;28;20572;-79
2021/07/08 01:13:01;;;;;;;3.22;2.17;;;;;21.20;101759.00;;;;5071546;28;20583;-79
2021/07/08 01:15:28;;;;;;;3.03;2.53;;;;;21.20;101764.00;;;;5085151;28;20194;-79
2021/07/08 01:17:56;;;;;;;2.90;2.35;;;;;21.20;101769.00;;;;5091558;28;20194;-79
2021/07/08 01:20:27;;;;;;;3.05;2.03;;;;;21.20;101771.00;;;;5090250;28;20186;-79
2021/07/08 01:22:59;;;;;;;2.58;2.10;;;;;21.20;101768.00;;;;5070631;28;20225;-79
2021/07/08 01:25:29;;;;;;;2.75;2.28;;;;;21.20;101771.00;;;;5071699;28;20225;-79
2021/07/08 01:27:57;;;;;;;3.88;2.03;;;;;21.20;101775.00;;;;5071236;28;20206;-79
2021/07/08 01:30:25;;;;;;;2.40;2.08;;;;;21.20;101779.00;;;;5071895;28;20199;-79
2021/07/08 01:32:53;;;;;;;3.05;2.00;;;;;21.30;101780.00;;;;5070820;28;20701;-79
2021/07/08 01:35:20;;;;;;;1.92;1.80;;;;;21.30;101774.00;;;;5071751;28;20218;-79
2021/07/08 01:37:47;;;;;;;3.65;2.20;;;;;21.30;101769.00;;;;5071670;28;20191;-79
2021/07/08 01:40:18;;;;;;;3.22;2.22;;;;;21.30;101780.00;;;;5071483;28;20191;-79
2021/07/08 01:42:46;;;;;;;2.33;2.05;;;;;21.30;101777.00;;;;5077442;28;20211;-79
2021/07/08 01:45:16;;;;;;;3.92;2.22;;;;;21.30;101772.00;;;;5076559;28;20194;-79
2021/07/08 01:47:44;;;;;;;2.53;2.08;;;;;21.40;101765.00;;;;5082371;28;20236;-79
2021/07/08 01:50:14;;;;;;;4.15;2.83;;;;;21.30;101762.00;;;;5076526;28;20198;-79
2021/07/08 01:52:42;;;;;;;2.63;2.17;;;;;21.40;101757.00;;;;5085280;28;20191;-80
2021/07/08 01:55:10;;;;;;;2.85;2.15;;;;;21.40;101760.00;;;;5076327;28;20202;-80
2021/07/08 01:57:42;;;;;;;2.83;2.35;;;;;21.40;101756.00;;;;5085656;28;20210;-80
2021/07/08 02:00:12;;;;;;;2.08;1.88;;;;;21.40;101751.00;;;;5071546;28;20213;-79
2021/07/08 02:02:39;;;;;;;5.70;2.15;;;;;21.40;101755.00;;;;5071476;28;21051;-79
2021/07/08 02:05:08;;;;;;;3.38;2.33;;;;;21.40;101749.00;;;;5071125;28;20746;-79
2021/07/08 02:07:35;;;;;;;2.60;2.38;;;;;21.40;101739.00;;;;5080031;28;20191;-79
2021/07/08 02:10:04;;;;;;;4.75;2.60;;;;;21.40;101742.00;;;;5076433;28;20203;-79
2021/07/08 02:12:31;;;;;;;2.45;2.03;;;;;21.40;101749.00;;;;5075676;28;20205;-79
2021/07/08 02:15:00;;;;;;;3.35;2.15;;;;;21.30;101747.00;;;;5084549;28;20187;-79
2021/07/08 02:17:27;;;;;;;2.40;2.17;;;;;21.40;101741.00;;;;5084612;28;20926;-79
2021/07/08 02:19:54;;;;;;;3.33;2.22;;;;;21.30;101750.00;;;;5080342;28;20194;-80
2021/07/08 02:22:21;;;;;;;4.35;2.05;;;;;21.30;101746.00;;;;5086623;28;20554;-79
2021/07/08 02:24:48;;;;;;;4.30;2.38;;;;;21.30;101738.00;;;;5089413;28;20194;-79
2021/07/08 02:27:16;;;;;;;2.95;2.53;;;;;21.30;101740.00;;;;5089370;28;20199;-79
2021/07/08 02:29:43;;;;;;;2.95;2.25;;;;;21.30;101735.00;;;;5086226;28;20210;-79
2021/07/08 02:32:12;;;;;;;2.92;2.60;;;;;21.20;101740.00;;;;5069567;28;20199;-79
2021/07/08 02:34:39;;;;;;;4.28;2.63;;;;;21.20;101753.00;;;;5069074;28;20233;-79
2021/07/08 02:37:08;;;;;;;3.05;2.72;;;;;21.20;101748.00;;;;5072568;28;20581;-79
2021/07/08 02:39:36;;;;;;;2.58;2.38;;;;;21.20;101739.00;;;;5085683;28;20548;-80
2021/07/08 02:42:04;;;;;;;2.67;2.28;;;;;21.10;101735.00;;;;5082317;28;20198;-79
2021/07/08 02:44:32;;;;;;;3.05;2.45;;;;;21.10;101734.00;;;;5073758;28;20225;-79
2021/07/08 02:46:59;;;;;;;2.88;2.38;;;;;21.10;101733.00;;;;5070374;28;20199;-80
2021/07/08 02:49:28;;;;;;;3.53;3.08;;;;;21.10;101739.00;;;;5069860;28;20187;-80
2021/07/08 02:51:55;;;;;;;6.13;2.90;;;;;21.10;101747.00;;;;5073667;28;20232;-80
2021/07/08 02:54:23;;;;;;;5.28;2.92;;;;;21.00;101752.00;;;;5069904;28;20747;-79
2021/07/08 02:56:50;;;;;;;3.45;2.53;;;;;21.00;101749.00;;;;5069766;28;20206;-79
2021/07/08 02:59:17;;;;;;;2.90;2.45;;;;;21.00;101758.00;;;;5085068;28;20206;-79
2021/07/08 03:01:44;;;;;;;2.47;2.13;;;;;21.00;101755.00;;;;5069331;28;20199;-79
2021/07/08 03:04:12;;;;;;;5.45;2.95;;;;;21.00;101761.00;;;;5069578;28;20231;-79
2021/07/08 03:06:40;;;;;;;2.97;2.63;;;;;21.00;101765.00;;;;5084272;28;20222;-79
2021/07/08 03:09:07;;;;;;;4.70;2.85;;;;;21.00;101759.00;;;;5081475;28;20209;-79
2021/07/08 03:11:35;;;;;;;2.63;2.42;;;;;21.00;101749.00;;;;5070404;28;20214;-79
2021/07/08 03:14:02;;;;;;;5.28;2.88;;;;;21.00;101747.00;;;;5074370;28;20198;-79
2021/07/08 03:16:29;;;;;;;3.47;2.95;;;;;21.00;101760.00;;;;5071118;28;20584;-79
2021/07/08 03:18:56;;;;;;;5.07;3.20;;;;;21.00;101764.00;;;;5089348;28;20194;-78
2021/07/08 03:21:23;;;;;;;3.78;2.38;;;;;20.90;101757.00;;;;5069232;28;20211;-79
2021/07/08 03:23:52;;;;;;;3.53;2.53;;;;;20.90;101765.00;;;;5068614;28;20226;-79
2021/07/08 03:26:19;;;;;;;4.57;3.05;;;;;20.90;101771.00;;;;5085146;28;20198;-79
2021/07/08 03:28:46;;;;;;;3.38;3.05;;;;;20.90;101771.00;;;;5074512;28;20289;-79
2021/07/08 03:31:14;;;;;;;3.20;2.53;;;;;20.90;101770.00;;;;5075304;28;20202;-79
2021/07/08 03:33:42;;;;;;;2.65;2.38;;;;;20.90;101776.00;;;;5068955;28;20219;-79
2021/07/08 03:36:09;;;;;;;2.70;2.40;;;;;20.90;101776.00;;;;5075891;28;21038;-79
2021/07/08 03:38:36;;;;;;;4.57;2.63;;;;;20.90;101785.00;;;;5071102;28;20191;-79
2021/07/08 03:41:05;;;;;;;4.82;2.75;;;;;20.90;101777.00;;;;5069891;28;20293;-79
2021/07/08 03:43:32;;;;;;;3.88;2.67;;;;;20.90;101773.00;;;;5072287;28;20222;-79
2021/07/08 03:45:59;;;;;;;3.65;2.35;;;;;20.90;101760.00;;;;5088992;28;20206;-79
2021/07/08 03:48:27;;;;;;;3.03;2.50;;;;;20.90;101771.00;;;;5078291;28;20212;-79
2021/07/08 03:50:54;;;;;;;4.95;2.60;;;;;20.90;101773.00;;;;5071464;28;20201;-79
2021/07/08 03:53:21;;;;;;;5.53;2.47;;;;;20.90;101777.00;;;;5075703;28;20256;-79
2021/07/08 03:55:48;;;;;;;3.75;2.97;;;;;20.90;101775.00;;;;5067680;28;20588;-79
2021/07/08 03:58:17;;;;;;;3.40;2.33;;;;;20.90;101773.00;;;;5075741;28;20198;-79
2021/07/08 04:00:44;;;;;;;2.67;2.38;;;;;20.90;101771.00;;;;5079561;28;20509;-79
2021/07/08 04:03:14;;;;;;;2.95;2.40;;;;;20.90;101769.00;;;;5078561;28;20255;-80
2021/07/08 04:05:43;;;;;;;3.63;1.95;;;;;20.90;101769.00;;;;5081234;28;20716;-79
2021/07/08 04:08:12;;;;;;;2.50;2.20;;;;;20.90;101768.00;;;;5088448;28;20213;-79
2021/07/08 04:10:40;;;;;;;4.43;2.50;;;;;21.00;101764.00;;;;5083746;28;20244;-79
2021/07/08 04:13:10;;;;;;;4.97;2.78;;;;;21.00;101766.00;;;;5081493;28;20190;-80
2021/07/08 04:15:39;;;;;;;5.25;2.72;;;;;21.00;101769.00;;;;5083448;28;20191;-79
2021/07/08 04:18:07;;;;;;;3.35;2.33;;;;;21.00;101768.00;;;;5076762;28;20226;-79
2021/07/08 04:20:35;;;;;;;2.53;2.33;;;;;21.00;101772.00;;;;5088319;28;20186;-80
2021/07/08 04:23:04;;;;;;;2.20;1.95;;;;;21.00;101768.00;;;;5081098;28;20203;-80
2021/07/08 04:25:31;;;;;;;2.45;2.08;;;;;21.00;101762.00;;;;5069382;28;20194;-80
2021/07/08 04:27:58;;;;;;;2.40;2.20;;;;;21.00;101768.00;;;;5075808;28;20206;-80
2021/07/08 04:30:27;;;;;;;2.30;2.03;;;;;21.10;101772.00;;;;5083103;28;20190;-80
2021/07/08 04:32:57;;;;;;;3.47;2.80;;;;;21.10;101772.00;;;;5083300;28;20197;-80
2021/07/08 04:35:29;;;;;;;3.55;2.17;;;;;21.10;101780.00;;;;5085383;28;20197;-80
2021/07/08 04:37:57;;;;;;;2.53;2.15;;;;;21.10;101778.00;;;;5080538;28;20195;-80
2021/07/08 04:40:24;;;;;;;2.35;2.13;;;;;21.10;101779.00;;;;5084696;28;20676;-80
2021/07/08 04:42:54;;;;;;;4.28;2.15;;;;;21.20;101784.00;;;;5079786;28;20201;-81
2021/07/08 04:45:22;;;;;;;2.70;1.98;;;;;21.20;101781.00;;;;5077267;28;20194;-80
2021/07/08 04:47:49;;;;;;;2.63;2.30;;;;;21.20;101783.00;;;;5080975;28;20348;-80
2021/07/08 04:50:20;;;;;;;3.35;2.83;;;;;21.20;101783.00;;;;5086608;28;20210;-80
2021/07/08 04:52:48;;;;;;;3.88;2.25;;;;;21.30;101785.00;;;;5081722;28;20621;-80
2021/07/08 04:55:17;;;;;;;3.08;2.25;;;;;21.30;101789.00;;;;5078816;28;20583;-80
2021/07/08 04:57:45;;;;;;;4.07;2.05;;;;;21.40;101794.00;;;;5086652;28;20297;-80
2021/07/08 05:00:14;;;;;;;2.47;2.10;;;;;21.40;101788.00;;;;5081223;28;20187;-80
2021/07/08 05:02:42;;;;;;;2.35;2.15;;;;;21.40;101801.00;;;;5074606;28;20202;-80
2021/07/08 05:05:12;;;;;;;2.92;2.33;;;;;21.50;101800.00;;;;5081844;28;20229;-80
2021/07/08 05:07:41;;;;;;;3.95;2.35;;;;;21.50;101802.00;;;;5078042;28;20265;-80
2021/07/08 05:10:11;;;;;;;4.20;2.25;;;;;21.50;101807.00;;;;5077292;28;20220;-80
2021/07/08 05:12:38;;;;;;;2.60;2.13;;;;;21.60;101814.00;;;;5077402;28;20199;-80
2021/07/08 05:15:06;;;;;;;2.83;2.10;;;;;21.60;101814.00;;;;5080551;28;20198;-79
2021/07/08 05:17:33;;;;;;;3.85;2.67;;;;;21.70;101816.00;;;;5086001;28;20673;-80
2021/07/08 05:20:01;;;;;;;2.80;2.60;;;;;21.70;101825.00;;;;5080692;28;20210;-79
2021/07/08 05:22:31;;;;;;;3.13;2.20;;;;;21.80;101827.00;;;;5082460;28;20194;-80
2021/07/08 05:25:00;;;;;;;2.80;2.13;;;;;21.80;101824.00;;;;5081793;28;20210;-80
2021/07/08 05:27:27;;;;;;;3.53;2.15;;;;;21.80;101825.00;;;;5080083;28;20195;-78
2021/07/08 05:29:56;;;;;;;1.95;1.65;;;;;21.90;101830.00;;;;5067555;28;20195;-78
2021/07/08 05:32:23;;;;;;;2.58;2.38;;;;;21.90;101830.00;;;;5074570;28;20195;-78
2021/07/08 05:34:51;;;;;;;2.85;2.00;;;;;22.00;101831.00;;;;5082013;28;20719;-77
2021/07/08 05:37:18;;;;;;;5.35;2.53;;;;;22.00;101834.00;;;;5072060;28;20214;-77
2021/07/08 05:39:45;;;;;;;2.72;2.13;;;;;22.10;101833.00;;;;5069844;28;20195;-79
2021/07/08 05:42:14;;;;;;;3.75;2.20;;;;;22.10;101845.00;;;;5067474;28;20198;-78
2021/07/08 05:44:41;;;;;;;2.03;1.80;;;;;22.20;101851.00;;;;5083459;28;20245;-77
2021/07/08 05:47:08;;;;;;;3.70;1.77;;;;;22.20;101853.00;;;;5086780;28;20198;-76
2021/07/08 05:49:35;;;;;;;5.00;2.10;;;;;22.30;101855.00;;;;5088225;28;20194;-76
2021/07/08 05:52:03;;;;;;;2.30;2.05;;;;;22.30;101861.00;;;;5081226;28;20202;-75
2021/07/08 05:54:30;;;;;;;2.63;2.10;;;;;22.40;101856.00;;;;5077059;28;20674;-76
2021/07/08 05:56:57;;;;;;;2.45;2.25;;;;;22.40;101857.00;;;;5084357;28;20203;-75
2021/07/08 05:59:28;;;;;;;2.90;1.88;;;;;22.50;101857.00;;;;5080103;28;20655;-76
2021/07/08 06:01:56;;;;;;;2.58;2.03;;;;;22.60;101858.00;;;;5072430;28;20229;-75
2021/07/08 06:04:23;;;;;;;3.25;2.40;;;;;22.60;101851.00;;;;5073735;28;20218;-77
2021/07/08 06:06:50;;;;;;;2.03;1.70;;;;;22.70;101854.00;;;;5087182;28;20232;-79
2021/07/08 06:09:18;;;;;;;4.45;2.47;;;;;22.80;101853.00;;;;5070780;28;20203;-79
2021/07/08 06:11:45;;;;;;;2.42;2.22;;;;;22.90;101851.00;;;;5070996;28;20209;-80
2021/07/08 06:14:12;;;;;;;2.50;2.30;;;;;23.00;101845.00;;;;5071103;28;20684;-80
2021/07/08 06:16:41;;;;;;;3.95;2.58;;;;;23.10;101846.00;;;;5091597;28;20198;-79
2021/07/08 06:19:08;;;;;;;4.45;2.20;;;;;23.20;101849.00;;;;5091137;28;20197;-80
2021/07/08 06:21:35;;;;;;;3.33;2.40;;;;;23.40;101845.00;;;;5081615;28;20669;-79
2021/07/08 06:24:02;;;;;;;3.20;2.20;;;;;23.50;101844.00;;;;5090208;28;20684;-80
2021/07/08 06:26:30;;;;;;;3.70;2.92;;;;;23.60;101841.00;;;;5090099;28;20195;-80
2021/07/08 06:28:57;;;;;;;2.75;2.30;;;;;23.70;101851.00;;;;5072411;28;20201;-78
2021/07/08 06:31:24;;;;;;;4.13;2.30;;;;;23.90;101849.00;;;;5084820;28;20201;-78
2021/07/08 06:33:52;;;;;;;4.20;2.58;;;;;24.00;101847.00;;;;5080976;28;20222;-78
2021/07/08 06:36:20;;;;;;;2.30;2.10;;;;;24.20;101846.00;;;;5080042;28;20202;-78
2021/07/08 06:38:47;;;;;;;2.20;2.00;;;;;24.30;101856.00;;;;5071224;28;20232;-78
2021/07/08 06:41:14;;;;;;;5.25;2.10;;;;;24.40;101850.00;;;;5081220;28;20199;-79
2021/07/08 06:43:41;;;;;;;5.53;2.42;;;;;24.50;101847.00;;;;5070905;28;20661;-78
2021/07/08 06:46:09;;;;;;;2.42;1.73;;;;;24.60;101850.00;;;;5074249;28;20227;-78
2021/07/08 06:48:36;;;;;;;2.88;1.65;;;;;24.70;101852.00;;;;5074244;28;20222;-79
2021/07/08 06:51:04;;;;;;;3.92;1.80;;;;;24.70;101860.00;;;;5069928;28;20199;-78
2021/07/08 06:53:32;;;;;;;4.95;2.10;;;;;24.80;101860.00;;;;5069966;28;20199;-78
2021/07/08 06:55:59;;;;;;;2.22;1.58;;;;;24.90;101870.00;;;;5076247;28;20239;-78
2021/07/08 06:58:26;;;;;;;4.05;2.10;;;;;25.00;101864.00;;;;5089859;28;20209;-79
2021/07/08 07:00:53;;;;;;;2.40;2.10;;;;;25.10;101874.00;;;;5086712;28;20195;-78
2021/07/08 07:03:22;;;;;;;2.20;1.85;;;;;25.10;101883.00;;;;5088288;28;20203;-79
2021/07/08 07:05:49;;;;;;;3.40;1.70;;;;;25.20;101878.00;;;;5079759;28;20336;-79
2021/07/08 07:08:18;;;;;;;2.72;1.50;;;;;25.20;101880.00;;;;5090228;28;20737;-79
2021/07/08 07:10:45;;;;;;;2.10;1.88;;;;;25.30;101885.00;;;;5072691;28;20210;-77
2021/07/08 07:13:13;;;;;;;2.08;1.65;;;;;25.30;101889.00;;;;5077014;28;20202;-77
2021/07/08 07:15:41;;;;;;;1.95;1.55;;;;;25.40;101884.00;;;;5081298;28;20661;-78
2021/07/08 07:18:08;;;;;;;2.65;1.50;;;;;25.40;101899.00;;;;5080849;28;20203;-77
2021/07/08 07:20:36;;;;;;;1.50;1.20;;;;;25.50;101903.00;;;;5082085;28;20191;-77
2021/07/08 07:23:04;;;;;;;1.35;1.13;;;;;25.60;101895.00;;;;5077203;28;20206;-77
2021/07/08 07:25:39;;;;;;;2.30;1.33;;;;;25.70;101898.00;;;;5089081;28;20699;-77
2021/07/08 07:28:08;;;;;;;2.25;1.23;;;;;25.80;101901.00;;;;5080841;28;20198;-77
2021/07/08 07:30:35;;;;;;;3.35;1.35;;;;;26.00;101897.00;;;;5090054;28;20201;-77
2021/07/08 07:33:02;;;;;;;2.90;1.20;;;;;26.10;101897.00;;;;5083991;28;20198;-77
2021/07/08 07:35:30;;;;;;;2.17;1.15;;;;;26.20;101899.00;;;;5077904;28;20226;-77
2021/07/08 07:37:57;;;;;;;2.00;1.23;;;;;26.30;101904.00;;;;5073399;28;20191;-77
2021/07/08 07:40:25;;;;;;;2.63;1.27;;;;;26.30;101904.00;;;;5068671;28;20207;-77
2021/07/08 07:42:54;;;;;;;2.90;1.20;;;;;26.30;101906.00;;;;5074275;28;20669;-77
2021/07/08 07:45:21;;;;;;;1.08;0.98;;;;;26.30;101913.00;;;;5068679;28;20226;-77
2021/07/08 07:47:52;;;;;;;0.88;0.82;;;;;26.40;101911.00;;;;5068677;28;20252;-77
2021/07/08 07:50:20;;;;;;;1.48;0.90;;;;;26.40;101913.00;;;;5074607;28;20191;-77
2021/07/08 07:52:47;;;;;;;1.65;1.00;;;;;26.40;101912.00;;;;5071909;28;20218;-78
2021/07/08 07:55:16;;;;;;;1.00;0.82;;;;;26.50;101918.00;;;;5069215;28;20203;-77
2021/07/08 07:57:44;;;;;;;1.58;1.02;;;;;26.50;101916.00;;;;5069032;28;20195;-77
2021/07/08 08:00:14;;;;;;;1.42;0.80;;;;;26.60;101911.00;;;;5067859;28;20191;-78
2021/07/08 08:02:41;;;;;;;1.98;1.00;;;;;26.70;101916.00;;;;5076408;28;20187;-77
2021/07/08 08:05:33;;;;;;;3.80;1.02;;;;;26.70;101919.00;;;;5068713;28;20337;-77
2021/07/08 08:10:46;;;;;;;1.98;0.93;;;;;26.80;101923.00;;;;5076111;28;20217;-77
2021/07/08 08:13:13;;;;;;;1.02;0.70;;;;;26.80;101921.00;;;;5074483;28;20202;-78
2021/07/08 08:15:43;;;;;;;1.67;0.80;;;;;26.80;101922.00;;;;5076896;28;20229;-78
2021/07/08 08:18:11;;;;;;;2.17;1.00;;;;;26.80;101919.00;;;;5075336;28;20742;-78
2021/07/08 08:20:38;;;;;;;0.80;0.80;;;;;26.80;101918.00;;;;5072442;28;20214;-78
2021/07/08 08:23:05;;;;;;;1.20;0.70;;;;;26.80;101924.00;;;;5075906;28;20683;-77
2021/07/08 08:25:32;;;;;;;0.93;0.65;;;;;26.80;101922.00;;;;5081726;28;20221;-78
2021/07/08 08:28:00;;;;;;;0.77;0.63;;;;;26.90;101926.00;;;;5073005;28;20765;-77
2021/07/08 08:30:28;;;;;;;1.67;0.80;;;;;27.00;101924.00;;;;5074857;28;20199;-78
2021/07/08 08:32:56;;;;;;;0.98;0.70;;;;;27.20;101916.00;;;;5085534;28;20209;-77
2021/07/08 08:35:24;;;;;;;1.23;1.00;;;;;27.40;101919.00;;;;5068899;28;20214;-77
2021/07/08 08:37:51;;;;;;;1.33;1.13;;;;;27.40;101918.00;;;;5067651;28;20210;-78
2021/07/08 08:40:21;;;;;;;1.92;1.05;;;;;27.50;101924.00;;;;5068667;28;20203;-77
2021/07/08 08:42:49;;;;;;;2.13;1.02;;;;;27.50;101922.00;;;;5068200;28;20221;-78
2021/07/08 08:45:18;;;;;;;0.90;0.80;;;;;27.50;101927.00;;;;5075761;28;20272;-77
2021/07/08 08:48:04;;;;;;;1.40;1.30;;;;;27.40;101923.00;;;;5067320;28;20199;-78
2021/07/08 08:50:34;;;;;;;1.23;0.70;;;;;27.60;101919.00;;;;5067951;28;20547;-77
2021/07/08 08:53:01;;;;;;;1.05;0.80;;;;;27.60;101910.00;;;;5068027;28;20762;-77
2021/07/08 08:55:29;;;;;;;1.63;1.08;;;;;27.60;101912.00;;;;5068098;28;20207;-77
2021/07/08 08:57:57;;;;;;;1.02;0.93;;;;;27.60;101909.00;;;;5068520;28;20272;-78
2021/07/08 09:00:47;;;;;;;1.02;0.73;;;;;27.60;101913.00;;;;5075955;28;20213;-77
2021/07/08 09:03:18;;;;;;;1.45;1.10;;;;;27.70;101918.00;;;;5087920;28;20597;-77
2021/07/08 09:05:47;;;;;;;1.15;0.93;;;;;27.90;101908.00;;;;5087256;28;20791;-77
2021/07/08 09:08:20;;;;;;;2.47;1.02;;;;;28.00;101918.00;;;;5087330;28;20201;-79
2021/07/08 09:10:51;;;;;;;1.98;1.20;;;;;28.10;101932.00;;;;5087724;28;20206;-78
2021/07/08 09:13:18;;;;;;;1.85;1.13;;;;;28.10;101933.00;;;;5087631;28;20198;-79
2021/07/08 09:15:46;;;;;;;2.30;1.10;;;;;28.10;101939.00;;;;5075926;28;20669;-79
2021/07/08 09:18:15;;;;;;;0.80;0.80;;;;;28.10;101938.00;;;;5081748;28;20210;-79
2021/07/08 09:20:43;;;;;;;1.30;0.90;;;;;28.10;101943.00;;;;5087363;28;20210;-79
2021/07/08 09:23:14;;;;;;;1.45;1.08;;;;;28.10;101947.00;;;;5088079;28;20202;-79
2021/07/08 09:25:42;;;;;;;2.92;0.77;;;;;28.00;101952.00;;;;5091253;28;20607;-80
2021/07/08 09:28:12;;;;;;;1.58;0.88;;;;;28.00;101953.00;;;;5091446;28;20598;-80
2021/07/08 09:30:41;;;;;;;1.38;1.13;;;;;27.90;101936.00;;;;5090449;28;20201;-79
2021/07/08 09:33:47;;;;;;;3.33;1.40;;;;;27.90;101918.00;;;;5090977;28;20233;-79
2021/07/08 09:36:17;;;;;;;3.83;1.20;;;;;28.00;101921.00;;;;5065478;28;20207;-79
2021/07/08 09:38:47;;;;;;;1.85;1.15;;;;;28.00;101918.00;;;;5070995;28;20214;-80
2021/07/08 09:41:17;;;;;;;2.22;1.42;;;;;28.00;101919.00;;;;5070792;28;20616;-80
2021/07/08 09:43:45;;;;;;;2.03;1.35;;;;;28.00;101920.00;;;;5081758;28;20317;-79
2021/07/08 09:46:14;;;;;;;1.38;0.90;;;;;28.10;101933.00;;;;5091342;28;20222;-81
2021/07/08 09:49:02;;;;;;;2.00;1.20;;;;;28.20;101933.00;;;;5091311;28;20198;-79
2021/07/08 09:51:32;;;;;;;1.23;1.13;;;;;28.20;101944.00;;;;5089990;28;20202;-80
2021/07/08 09:54:06;;;;;;;1.55;1.17;;;;;28.30;101951.00;;;;5090928;28;20202;-80
2021/07/08 09:56:46;;;;;;;1.75;0.95;;;;;28.20;101961.00;;;;5091141;28;20209;-79
2021/07/08 09:59:14;;;;;;;3.17;1.20;;;;;28.20;101976.00;;;;5091404;28;20198;-80
2021/07/08 10:01:43;;;;;;;2.33;1.00;;;;;28.20;101975.00;;;;5091745;28;20293;-79
2021/07/08 10:04:11;;;;;;;1.38;1.08;;;;;28.20;101973.00;;;;5090961;28;20694;-79
2021/07/08 10:06:40;;;;;;;2.03;1.20;;;;;28.10;101971.00;;;;5091578;28;20317;-79
2021/07/08 10:09:08;;;;;;;3.63;1.30;;;;;28.10;101974.00;;;;5077099;28;20207;-79
2021/07/08 10:11:37;;;;;;;2.53;1.00;;;;;28.00;101972.00;;;;5070401;28;20207;-79
2021/07/08 10:14:07;;;;;;;3.85;1.10;;;;;28.10;101969.00;;;;5070374;28;20210;-79
2021/07/08 10:16:36;;;;;;;1.90;1.15;;;;;28.10;101969.00;;;;5091969;28;20199;-80
2021/07/08 10:19:06;;;;;;;1.50;1.00;;;;;28.10;101968.00;;;;5111104;28;20206;-79
2021/07/08 10:21:34;;;;;;;1.65;1.15;;;;;28.20;101978.00;;;;5111458;28;20209;-80
2021/07/08 10:24:04;;;;;;;2.35;1.67;;;;;28.10;101986.00;;;;5111470;28;21304;-79
2021/07/08 10:26:31;;;;;;;3.38;1.10;;;;;28.10;101986.00;;;;5075649;28;20230;-79
2021/07/08 10:29:00;;;;;;;1.55;1.17;;;;;28.20;101985.00;;;;5070969;28;20211;-79
2021/07/08 10:31:28;;;;;;;1.38;1.17;;;;;28.20;101980.00;;;;5071056;28;20646;-79
2021/07/08 10:34:10;;;;;;;2.13;1.10;;;;;28.20;101978.00;;;;5070643;28;20226;-79
2021/07/08 10:36:39;;;;;;;1.85;1.13;;;;;28.40;101971.00;;;;5070453;28;20207;-80
2021/07/08 10:39:09;;;;;;;3.17;1.15;;;;;28.50;101964.00;;;;5070323;28;20195;-80
2021/07/08 10:41:48;;;;;;;1.35;1.17;;;;;28.50;101959.00;;;;5071084;28;20264;-79
2021/07/08 10:44:52;;;;;;;1.10;1.00;;;;;28.60;101963.00;;;;5086365;28;20686;-80
2021/07/08 10:47:40;;;;;;;1.50;1.30;;;;;28.70;101955.00;;;;5090718;28;20580;-79
2021/07/08 10:50:24;;;;;;;1.45;1.35;;;;;29.00;101953.00;;;;5089843;28;20202;-79
2021/07/08 10:52:51;;;;;;;1.35;1.13;;;;;29.10;101959.00;;;;5089647;28;20213;-79
2021/07/08 10:55:36;;;;;;;1.40;1.30;;;;;29.20;101964.00;;;;5090614;28;20198;-79
2021/07/08 10:58:04;;;;;;;1.52;1.40;;;;;29.40;101959.00;;;;5090649;28;20510;-79
2021/07/08 11:00:46;;;;;;;1.17;0.93;;;;;29.40;101959.00;;;;5089359;28;20213;-79
2021/07/08 11:03:44;;;;;;;1.40;1.30;;;;;29.50;101953.00;;;;5090355;28;20259;-80
2021/07/08 11:06:21;;;;;;;1.20;1.10;;;;;29.60;101940.00;;;;5089741;28;20598;-80
2021/07/08 11:09:04;;;;;;;2.72;1.02;;;;;29.60;101939.00;;;;5089984;28;20730;-78
2021/07/08 11:12:01;;;;;;;1.52;1.40;;;;;29.70;101941.00;;;;5090120;28;20194;-80
2021/07/08 11:14:41;;;;;;;1.35;1.20;;;;;29.70;101928.00;;;;5090585;28;20207;-79
2021/07/08 11:17:20;;;;;;;1.10;1.00;;;;;29.80;101930.00;;;;5084242;28;20699;-79
2021/07/08 11:19:49;;;;;;;1.10;1.00;;;;;29.90;101926.00;;;;5089617;28;20288;-79
2021/07/08 11:22:35;;;;;;;1.23;1.10;;;;;29.80;101930.00;;;;5089859;28;20576;-79
2021/07/08 11:25:03;;;;;;;1.33;1.02;;;;;29.90;101926.00;;;;5089974;28;20199;-80
2021/07/08 11:27:38;;;;;;;1.35;1.25;;;;;29.90;101929.00;;;;5089420;28;20198;-80
2021/07/08 11:30:25;;;;;;;1.98;0.75;;;;;29.80;101924.00;;;;5089842;28;20846;-79
2021/07/08 11:32:55;;;;;;;2.28;1.10;;;;;29.90;101924.00;;;;5074409;28;20206;-79
2021/07/08 11:35:25;;;;;;;2.15;1.05;;;;;29.90;101923.00;;;;5090123;28;20324;-79
2021/07/08 11:37:55;;;;;;;1.88;1.17;;;;;29.90;101932.00;;;;5089401;28;20245;-80
2021/07/08 11:40:24;;;;;;;1.85;1.40;;;;;29.90;101933.00;;;;5090401;28;20206;-79
2021/07/08 11:42:53;;;;;;;1.33;1.10;;;;;29.90;101934.00;;;;5076458;28;20664;-80
2021/07/08 11:45:24;;;;;;;2.50;0.90;;;;;29.90;101930.00;;;;5068699;28;20207;-77
2021/07/08 11:47:53;;;;;;;3.45;1.08;;;;;30.00;101927.00;;;;5068859;28;20199;-77
2021/07/08 11:50:22;;;;;;;1.38;1.17;;;;;30.00;101929.00;;;;5076190;28;20210;-77
2021/07/08 11:53:04;;;;;;;1.30;1.10;;;;;30.00;101932.00;;;;5088767;28;20329;-77
2021/07/08 11:55:31;;;;;;;1.25;1.15;;;;;30.00;101923.00;;;;5088609;28;20213;-77
2021/07/08 11:58:02;;;;;;;2.05;1.42;;;;;30.00;101921.00;;;;5089138;28;20213;-76
2021/07/08 12:00:32;;;;;;;2.60;1.00;;;;;30.10;101932.00;;;;5089390;28;20202;-77
2021/07/08 12:03:00;;;;;;;1.40;1.30;;;;;30.10;101932.00;;;;5088446;28;20209;-76
2021/07/08 12:05:28;;;;;;;2.33;1.20;;;;;30.20;101932.00;;;;5089218;28;20198;-77
2021/07/08 12:07:59;;;;;;;1.10;1.00;;;;;30.20;101930.00;;;;5088141;28;20232;-77
2021/07/08 12:10:31;;;;;;;1.85;1.23;;;;;30.20;101928.00;;;;5088929;28;20202;-77
2021/07/08 12:13:01;;;;;;;7.20;1.20;;;;;30.20;101927.00;;;;5088473;28;20209;-77
2021/07/08 12:15:29;;;;;;;1.20;1.10;;;;;30.30;101937.00;;;;5082994;28;20222;-77
2021/07/08 12:17:59;;;;;;;1.40;1.20;;;;;30.30;101938.00;;;;5068649;28;20207;-76
2021/07/08 12:20:28;;;;;;;1.45;1.25;;;;;30.30;101942.00;;;;5068222;28;20202;-76
2021/07/08 12:23:02;;;;;;;3.72;1.00;;;;;30.30;101940.00;;;;5068803;28;20607;-76